createdAt,value
2022-11-04T00:00:34.745Z,98823.41
2022-11-04T00:03:04.040Z,98819.45
2022-11-04T00:05:34.295Z,98816.85
2022-11-04T00:08:21.506Z,98817.38
2022-11-04T00:11:13.499Z,98816.48
2022-11-04T00:13:42.543Z,98816.34
2022-11-04T00:16:29.888Z,98813.36
2022-11-04T00:18:59.628Z,98806.58
2022-11-04T00:21:47.021Z,98804.98
2022-11-04T00:24:34.364Z,98800.94
2022-11-04T00:27:22.097Z,98798.65
2022-11-04T00:29:50.812Z,98802.84
2022-11-04T00:32:37.989Z,98795.05
2022-11-04T00:35:06.436Z,98792.74
2022-11-04T00:37:42.802Z,98793.74
2022-11-04T00:40:14.532Z,98790.16
2022-11-04T00:42:46.723Z,98789.49
2022-11-04T00:45:14.922Z,98789.17
2022-11-04T00:47:43.475Z,98782.23
2022-11-04T00:50:13.269Z,98779.68
2022-11-04T00:52:42.290Z,98777.27
2022-11-04T00:55:12.327Z,98774.37
2022-11-04T00:57:42.689Z,98776.56
2022-11-04T01:00:11.622Z,98777.00
2022-11-04T01:02:40.401Z,98776.56
2022-11-04T01:05:09.570Z,98773.88
2022-11-04T01:07:43.391Z,98772.56
2022-11-04T01:10:13.264Z,98768.61
2022-11-04T01:12:42.485Z,98767.96
2022-11-04T01:15:11.040Z,98765.65
2022-11-04T01:17:39.910Z,98772.09
2022-11-04T01:20:09.967Z,98769.30
2022-11-04T01:22:38.705Z,98775.25
2022-11-04T01:25:07.852Z,98769.04
2022-11-04T01:27:36.182Z,98770.76
2022-11-04T01:30:05.361Z,98767.84
2022-11-04T01:32:33.967Z,98762.80
2022-11-04T01:35:02.658Z,98761.61
2022-11-04T01:37:33.122Z,98757.92
2022-11-04T01:40:01.328Z,98751.48
2022-11-04T01:42:30.851Z,98756.01
2022-11-04T01:45:01.002Z,98753.34
2022-11-04T01:47:42.302Z,98753.05
2022-11-04T01:50:32.207Z,98747.14
2022-11-04T01:53:18.652Z,98751.14
2022-11-04T01:55:53.243Z,98747.14
2022-11-04T01:58:26.460Z,98742.78
2022-11-04T02:00:54.786Z,98735.46
2022-11-04T02:03:34.472Z,98728.33
2022-11-04T02:06:11.995Z,98723.36
2022-11-04T02:08:43.640Z,98722.19
2022-11-04T02:11:34.517Z,98721.05
2022-11-04T02:14:03.602Z,98720.32
2022-11-04T02:16:44.528Z,98721.33
2022-11-04T02:19:31.249Z,98723.33
2022-11-04T02:22:37.411Z,98716.10
2022-11-04T02:25:14.923Z,98711.58
2022-11-04T02:28:12.043Z,98705.45
2022-11-04T02:30:58.997Z,98702.69
2022-11-04T02:33:50.795Z,98700.48
2022-11-04T02:36:48.840Z,98700.67
2022-11-04T02:39:34.478Z,98701.33
2022-11-04T02:42:22.433Z,98694.88
2022-11-04T02:45:07.969Z,98686.21
2022-11-04T02:47:38.668Z,98681.63
2022-11-04T02:50:10.217Z,98676.59
2022-11-04T02:53:26.697Z,98674.04
2022-11-04T02:55:58.454Z,98666.34
2022-11-04T02:58:55.140Z,98671.47
2022-11-04T03:01:28.041Z,98676.17
2022-11-04T03:04:04.651Z,98679.55
2022-11-04T03:06:35.580Z,98672.77
2022-11-04T03:09:11.821Z,98671.70
2022-11-04T03:11:45.705Z,98672.77
2022-11-04T03:14:24.016Z,98672.77
2022-11-04T03:17:01.311Z,98676.20
2022-11-04T03:19:49.947Z,98679.98
2022-11-04T03:22:21.545Z,98675.61
2022-11-04T03:24:51.645Z,98678.59
2022-11-04T03:27:33.464Z,98679.56
2022-11-04T03:33:07.095Z,98681.16
2022-11-04T03:35:35.613Z,98681.56
2022-11-04T03:38:04.082Z,98680.15
2022-11-04T03:40:32.474Z,98677.98
2022-11-04T03:43:14.394Z,98676.86
2022-11-04T03:45:43.991Z,98674.59
2022-11-04T03:48:13.498Z,98675.65
2022-11-04T03:50:51.308Z,98676.58
2022-11-04T03:53:23.064Z,98675.50
2022-11-04T03:56:14.983Z,98677.98
2022-11-04T03:58:55.006Z,98675.74
2022-11-04T04:01:28.466Z,98674.25
2022-11-04T04:04:09.033Z,98676.09
2022-11-04T04:06:38.082Z,98671.20
2022-11-04T04:09:17.363Z,98669.88
2022-11-04T04:11:58.120Z,98673.69
2022-11-04T04:14:48.770Z,98677.73
2022-11-04T04:17:55.164Z,98672.95
2022-11-04T04:20:27.312Z,98668.45
2022-11-04T04:23:28.826Z,98660.75
2022-11-04T04:26:18.676Z,98649.80
2022-11-04T04:28:48.628Z,98650.86
2022-11-04T04:31:40.130Z,98643.95
2022-11-04T04:34:08.425Z,98639.05
2022-11-04T04:36:52.170Z,98642.84
2022-11-04T04:39:42.334Z,98646.06
2022-11-04T04:42:30.399Z,98647.41
2022-11-04T04:45:02.728Z,98648.64
2022-11-04T04:47:44.235Z,98645.96
2022-11-04T04:50:18.038Z,98643.59
2022-11-04T04:52:49.569Z,98641.98
2022-11-04T04:55:18.264Z,98644.23
2022-11-04T04:57:47.488Z,98646.79
2022-11-04T05:00:19.006Z,98652.30
2022-11-04T05:02:48.540Z,98652.75
2022-11-04T05:05:17.791Z,98657.61
2022-11-04T05:07:46.433Z,98661.80
2022-11-04T05:10:18.899Z,98666.89
2022-11-04T05:13:05.808Z,98666.21
2022-11-04T05:15:37.787Z,98673.23
2022-11-04T05:18:06.945Z,98676.36
2022-11-04T05:20:38.501Z,98683.37
2022-11-04T05:23:07.727Z,98689.14
2022-11-04T05:25:36.094Z,98692.52
2022-11-04T05:28:04.774Z,98695.80
2022-11-04T05:30:33.355Z,98697.57
2022-11-04T05:33:04.782Z,98699.51
2022-11-04T05:35:34.852Z,98696.05
2022-11-04T05:38:03.216Z,98693.43
2022-11-04T05:40:31.488Z,98702.84
2022-11-04T05:43:05.110Z,98707.57
2022-11-04T05:45:33.346Z,98712.23
2022-11-04T05:48:04.606Z,98720.07
2022-11-04T05:50:35.141Z,98716.02
2022-11-04T05:53:03.373Z,98714.40
2022-11-04T05:55:31.668Z,98719.23
2022-11-04T05:58:00.079Z,98726.80
2022-11-04T06:00:28.891Z,98724.94
2022-11-04T06:02:57.681Z,98729.83
2022-11-04T06:05:28.019Z,98731.86
2022-11-04T06:07:57.218Z,98736.10
2022-11-04T06:10:25.903Z,98735.28
2022-11-04T06:12:56.197Z,98734.60
2022-11-04T06:15:24.842Z,98733.21
2022-11-04T06:17:53.005Z,98734.91
2022-11-04T06:20:21.735Z,98736.27
2022-11-04T06:22:50.532Z,98733.41
2022-11-04T06:25:19.386Z,98733.19
2022-11-04T06:27:47.529Z,98724.45
2022-11-04T06:30:15.799Z,98721.20
2022-11-04T06:32:43.892Z,98723.30
2022-11-04T06:35:12.418Z,98723.00
2022-11-04T06:37:40.948Z,98726.27
2022-11-04T06:40:10.018Z,98722.50
2022-11-04T06:42:39.079Z,98724.14
2022-11-04T06:45:07.684Z,98719.17
2022-11-04T06:47:35.829Z,98727.33
2022-11-04T06:50:04.327Z,98727.09
2022-11-04T06:52:32.394Z,98724.02
2022-11-04T06:55:00.635Z,98722.18
2022-11-04T06:57:31.208Z,98724.80
2022-11-04T07:00:02.280Z,98732.31
2022-11-04T07:02:31.785Z,98731.48
2022-11-04T07:05:00.238Z,98738.65
2022-11-04T07:07:30.844Z,98739.56
2022-11-04T07:09:59.084Z,98737.83
2022-11-04T07:12:27.244Z,98732.40
2022-11-04T07:14:56.554Z,98732.43
2022-11-04T07:17:26.409Z,98732.02
2022-11-04T07:19:55.019Z,98736.69
2022-11-04T07:22:26.162Z,98734.80
2022-11-04T07:24:56.418Z,98739.59
2022-11-04T07:27:26.403Z,98737.61
2022-11-04T07:29:55.070Z,98731.75
2022-11-04T07:32:23.402Z,98730.50
2022-11-04T07:34:51.712Z,98732.67
2022-11-04T07:37:20.028Z,98728.73
2022-11-04T07:39:48.284Z,98727.83
2022-11-04T07:42:16.657Z,98727.31
2022-11-04T07:44:44.838Z,98730.55
2022-11-04T07:47:13.019Z,98729.77
2022-11-04T07:49:41.205Z,98728.58
2022-11-04T07:52:09.393Z,98730.37
2022-11-04T07:54:37.712Z,98728.79
2022-11-04T07:57:06.046Z,98726.48
2022-11-04T07:59:34.230Z,98729.48
2022-11-04T08:02:04.284Z,98733.23
2022-11-04T08:04:32.577Z,98727.16
2022-11-04T08:07:03.593Z,98727.34
2022-11-04T08:09:34.180Z,98727.09
2022-11-04T08:12:05.734Z,98725.02
2022-11-04T08:14:33.912Z,98722.04
2022-11-04T08:17:02.323Z,98717.59
2022-11-04T08:19:31.566Z,98718.96
2022-11-04T08:22:00.043Z,98713.66
2022-11-04T08:24:28.216Z,98710.73
2022-11-04T08:26:56.837Z,98708.63
2022-11-04T08:29:25.199Z,98706.17
2022-11-04T08:31:54.803Z,98702.46
2022-11-04T08:34:23.816Z,98698.88
2022-11-04T08:36:53.696Z,98695.93
2022-11-04T08:39:25.113Z,98692.52
2022-11-04T08:41:53.830Z,98687.42
2022-11-04T08:44:22.800Z,98683.25
2022-11-04T08:46:51.777Z,98688.69
2022-11-04T08:49:21.521Z,98691.54
2022-11-04T08:51:56.801Z,98693.05
2022-11-04T08:54:25.924Z,98687.38
2022-11-04T08:56:56.010Z,98684.05
2022-11-04T08:59:25.327Z,98684.64
2022-11-04T09:01:53.710Z,98681.23
2022-11-04T09:04:23.417Z,98684.15
2022-11-04T09:06:52.393Z,98679.39
2022-11-04T09:09:21.082Z,98680.19
2022-11-04T09:11:49.591Z,98678.63
2022-11-04T09:14:18.448Z,98669.05
2022-11-04T09:16:46.877Z,98669.98
2022-11-04T09:19:15.418Z,98660.14
2022-11-04T09:21:43.888Z,98657.64
2022-11-04T09:24:12.556Z,98654.27
2022-11-04T09:26:41.356Z,98657.44
2022-11-04T09:29:10.382Z,98661.98
2022-11-04T09:31:39.177Z,98663.06
2022-11-04T09:34:07.361Z,98668.05
2022-11-04T09:36:35.735Z,98668.59
2022-11-04T09:39:04.944Z,98666.65
2022-11-04T09:41:54.892Z,98658.83
2022-11-04T09:44:32.370Z,98652.25
2022-11-04T09:47:03.439Z,98655.30
2022-11-04T09:49:38.720Z,98655.22
2022-11-04T09:52:17.658Z,98656.23
2022-11-04T09:54:55.303Z,98647.54
2022-11-04T09:57:24.121Z,98636.77
2022-11-04T09:59:53.272Z,98638.36
2022-11-04T10:02:40.095Z,98642.73
2022-11-04T10:05:21.044Z,98642.89
2022-11-04T10:07:56.935Z,98639.92
2022-11-04T10:10:37.956Z,98639.02
2022-11-04T10:13:26.524Z,98640.25
2022-11-04T10:16:03.878Z,98639.71
2022-11-04T10:19:08.171Z,98638.70
2022-11-04T10:21:43.711Z,98642.00
2022-11-04T10:24:24.152Z,98641.70
2022-11-04T10:27:00.364Z,98636.89
2022-11-04T10:29:44.788Z,98643.77
2022-11-04T10:32:22.648Z,98643.50
2022-11-04T10:34:58.646Z,98649.64
2022-11-04T10:37:27.461Z,98653.87
2022-11-04T10:40:32.453Z,98658.77
2022-11-04T10:43:11.602Z,98667.56
2022-11-04T10:46:03.851Z,98673.61
2022-11-04T10:48:53.985Z,98676.06
2022-11-04T10:51:24.392Z,98677.24
2022-11-04T10:54:01.474Z,98673.23
2022-11-04T10:56:46.907Z,98675.48
2022-11-04T10:59:25.089Z,98675.20
2022-11-04T11:01:58.308Z,98677.36
2022-11-04T11:04:33.594Z,98677.35
2022-11-04T11:07:05.591Z,98673.96
2022-11-04T11:09:41.749Z,98669.54
2022-11-04T11:12:44.187Z,98665.28
2022-11-04T11:15:26.428Z,98672.50
2022-11-04T11:18:06.917Z,98674.38
2022-11-04T11:20:38.227Z,98672.69
2022-11-04T11:23:26.807Z,98673.81
2022-11-04T11:25:55.001Z,98677.45
2022-11-04T11:28:26.139Z,98674.56
2022-11-04T11:30:54.448Z,98670.13
2022-11-04T11:33:31.831Z,98669.35
2022-11-04T11:36:20.883Z,98667.15
2022-11-04T11:39:05.856Z,98661.21
2022-11-04T11:41:53.122Z,98672.64
2022-11-04T11:44:34.143Z,98682.23
2022-11-04T11:47:05.008Z,98688.77
2022-11-04T11:49:36.919Z,98689.30
2022-11-04T11:52:27.115Z,98693.30
2022-11-04T11:55:11.295Z,98696.05
2022-11-04T12:00:54.599Z,98683.31
2022-11-04T12:09:52.192Z,98676.82
2022-11-04T12:12:43.866Z,98681.50
2022-11-04T12:15:32.177Z,98684.02
2022-11-04T12:18:28.475Z,98685.01
2022-11-04T12:21:07.031Z,98687.61
2022-11-04T12:23:39.733Z,98695.01
2022-11-04T12:26:20.988Z,98697.45
2022-11-04T12:28:57.916Z,98693.60
2022-11-04T12:31:42.794Z,98687.18
2022-11-04T12:34:53.144Z,98688.64
2022-11-04T12:37:39.464Z,98682.94
2022-11-04T12:40:32.895Z,98676.86
2022-11-04T12:43:13.233Z,98675.52
2022-11-04T12:45:56.676Z,98671.85
2022-11-04T12:48:40.690Z,98681.51
2022-11-04T12:51:28.107Z,98682.02
2022-11-04T12:54:28.974Z,98674.08
2022-11-04T12:57:17.150Z,98666.46
2022-11-04T12:59:57.827Z,98665.27
2022-11-04T13:02:36.036Z,98667.92
2022-11-04T13:05:33.310Z,98665.58
2022-11-04T13:08:50.155Z,98667.02
2022-11-04T13:11:24.438Z,98673.61
2022-11-04T13:13:55.130Z,98679.71
2022-11-04T13:16:29.288Z,98683.95
2022-11-04T13:19:00.140Z,98685.92
2022-11-04T13:21:32.525Z,98684.55
2022-11-04T13:24:20.943Z,98683.46
2022-11-04T13:26:52.110Z,98679.77
2022-11-04T13:29:22.338Z,98681.32
2022-11-04T13:32:01.456Z,98681.84
2022-11-04T13:34:51.721Z,98689.92
2022-11-04T13:37:33.731Z,98684.54
2022-11-04T13:40:11.915Z,98678.15
2022-11-04T13:43:17.445Z,98672.23
2022-11-04T13:45:57.280Z,98669.08
2022-11-04T13:48:30.205Z,98666.11
2022-11-04T13:51:06.023Z,98664.52
2022-11-04T13:53:51.593Z,98660.67
2022-11-04T13:56:41.560Z,98661.81
2022-11-04T13:59:30.566Z,98661.85
2022-11-04T14:02:11.476Z,98662.17
2022-11-04T14:04:44.326Z,98662.54
2022-11-04T14:07:18.293Z,98665.23
2022-11-04T14:09:52.588Z,98669.95
2022-11-04T14:12:30.209Z,98667.91
2022-11-04T14:15:11.217Z,98672.98
2022-11-04T14:17:39.340Z,98675.83
2022-11-04T14:20:30.405Z,98677.71
2022-11-04T14:23:02.360Z,98675.83
2022-11-04T14:25:42.088Z,98677.95
2022-11-04T14:28:10.913Z,98677.77
2022-11-04T14:30:44.733Z,98687.88
2022-11-04T14:33:40.831Z,98686.14
2022-11-04T14:36:17.731Z,98687.80
2022-11-04T14:38:55.960Z,98688.23
2022-11-04T14:41:39.670Z,98690.19
2022-11-04T14:44:09.504Z,98697.27
2022-11-04T14:46:44.863Z,98698.52
2022-11-04T14:49:45.901Z,98700.50
2022-11-04T14:52:17.346Z,98702.28
2022-11-04T14:54:46.161Z,98698.48
2022-11-04T14:57:16.993Z,98695.30
2022-11-04T14:59:46.207Z,98694.88
2022-11-04T15:02:16.638Z,98696.17
2022-11-04T15:04:49.114Z,98699.02
2022-11-04T15:07:31.700Z,98700.30
2022-11-04T15:09:59.941Z,98701.64
2022-11-04T15:12:47.280Z,98702.62
2022-11-04T15:15:29.628Z,98701.30
2022-11-04T15:18:01.526Z,98702.45
2022-11-04T15:20:31.581Z,98702.02
2022-11-04T15:23:03.337Z,98708.71
2022-11-04T15:25:33.243Z,98704.86
2022-11-04T15:28:01.333Z,98707.96
2022-11-04T15:30:33.801Z,98713.54
2022-11-04T15:33:04.071Z,98716.80
2022-11-04T15:35:33.954Z,98717.59
2022-11-04T15:38:04.049Z,98719.89
2022-11-04T15:40:35.146Z,98723.98
2022-11-04T15:43:07.397Z,98727.44
2022-11-04T15:45:38.104Z,98726.58
2022-11-04T15:48:23.323Z,98731.99
2022-11-04T15:51:02.325Z,98733.06
2022-11-04T15:53:35.094Z,98734.76
2022-11-04T15:56:04.692Z,98733.63
2022-11-04T15:58:35.831Z,98735.41
2022-11-04T16:01:04.783Z,98734.51
2022-11-04T16:03:33.184Z,98734.98
2022-11-04T16:06:05.540Z,98735.89
2022-11-04T16:08:34.173Z,98732.55
2022-11-04T16:11:20.144Z,98734.64
2022-11-04T16:13:48.630Z,98728.85
2022-11-04T16:16:25.942Z,98733.43
2022-11-04T16:18:57.768Z,98728.02
2022-11-04T16:21:35.925Z,98728.74
2022-11-04T16:24:17.652Z,98730.23
2022-11-04T16:26:46.661Z,98729.50
2022-11-04T16:29:22.297Z,98726.40
2022-11-04T16:32:19.955Z,98723.03
2022-11-04T16:34:51.499Z,98724.02
2022-11-04T16:37:19.877Z,98723.23
2022-11-04T16:39:50.091Z,98723.71
2022-11-04T16:42:19.306Z,98722.80
2022-11-04T16:44:51.018Z,98727.41
2022-11-04T16:47:20.077Z,98731.23
2022-11-04T16:49:48.248Z,98733.77
2022-11-04T16:52:23.332Z,98735.14
2022-11-04T16:54:51.774Z,98738.84
2022-11-04T16:57:19.941Z,98737.48
2022-11-04T16:59:48.595Z,98736.17
2022-11-04T17:02:42.972Z,98738.66
2022-11-04T17:05:12.835Z,98736.86
2022-11-04T17:07:52.710Z,98740.70
2022-11-04T17:10:26.149Z,98749.91
2022-11-04T17:12:54.858Z,98752.34
2022-11-04T17:15:23.139Z,98749.82
2022-11-04T17:17:51.317Z,98747.58
2022-11-04T17:20:20.445Z,98744.00
2022-11-04T17:22:49.264Z,98743.61
2022-11-04T17:25:22.002Z,98742.42
2022-11-04T17:27:50.689Z,98746.59
2022-11-04T17:30:21.933Z,98744.99
2022-11-04T17:32:51.809Z,98738.05
2022-11-04T17:35:20.300Z,98742.94
2022-11-04T17:37:53.002Z,98735.33
2022-11-04T17:40:23.110Z,98738.02
2022-11-04T17:43:12.412Z,98739.70
2022-11-04T17:45:44.442Z,98739.17
2022-11-04T17:48:14.483Z,98741.02
2022-11-04T17:50:45.677Z,98748.34
2022-11-04T17:53:14.613Z,98753.88
2022-11-04T17:55:44.416Z,98751.85
2022-11-04T17:58:13.294Z,98752.73
2022-11-04T18:00:41.584Z,98752.30
2022-11-04T18:03:12.585Z,98751.67
2022-11-04T18:05:41.489Z,98751.48
2022-11-04T18:08:10.263Z,98747.59
2022-11-04T18:10:38.511Z,98747.39
2022-11-04T18:13:07.818Z,98745.80
2022-11-04T18:15:36.368Z,98741.06
2022-11-04T18:18:04.619Z,98742.85
2022-11-04T18:20:34.539Z,98746.86
2022-11-04T18:23:02.823Z,98745.38
2022-11-04T18:25:31.483Z,98748.81
2022-11-04T18:28:00.579Z,98747.06
2022-11-04T18:30:29.371Z,98749.79
2022-11-04T18:32:57.524Z,98752.84
2022-11-04T18:35:25.711Z,98758.71
2022-11-04T18:37:56.721Z,98766.98
2022-11-04T18:40:26.302Z,98769.95
2022-11-04T18:42:54.453Z,98767.10
2022-11-04T18:45:23.461Z,98759.96
2022-11-04T18:47:52.053Z,98753.47
2022-11-04T18:50:20.261Z,98751.20
2022-11-04T18:52:48.469Z,98745.02
2022-11-04T18:55:16.870Z,98745.27
2022-11-04T18:57:46.587Z,98740.43
2022-11-04T19:00:17.298Z,98740.52
2022-11-04T19:02:45.835Z,98740.41
2022-11-04T19:05:14.260Z,98744.78
2022-11-04T19:07:42.571Z,98756.52
2022-11-04T19:10:11.888Z,98760.43
2022-11-04T19:13:00.337Z,98765.18
2022-11-04T19:15:28.506Z,98764.59
2022-11-04T19:17:56.631Z,98764.64
2022-11-04T19:20:24.853Z,98764.98
2022-11-04T19:22:53.118Z,98765.92
2022-11-04T19:25:21.298Z,98764.67
2022-11-04T19:28:26.823Z,98768.70
2022-11-04T19:30:38.930Z,98772.62
2022-11-04T19:33:07.183Z,98777.17
2022-11-04T19:35:35.833Z,98777.04
2022-11-04T19:38:04.068Z,98784.42
2022-11-04T19:40:34.662Z,98784.79
2022-11-04T19:43:12.127Z,98787.49
2022-11-04T19:45:45.900Z,98788.91
2022-11-04T19:48:14.304Z,98790.40
2022-11-04T19:50:46.186Z,98790.34
2022-11-04T19:53:16.677Z,98797.41
2022-11-04T19:55:53.205Z,98799.83
2022-11-04T19:58:23.355Z,98806.79
2022-11-04T20:00:51.589Z,98808.70
2022-11-04T20:03:19.944Z,98808.50
2022-11-04T20:05:48.750Z,98810.05
2022-11-04T20:08:17.055Z,98810.43
2022-11-04T20:10:45.575Z,98815.20
2022-11-04T20:13:35.598Z,98809.96
2022-11-04T20:16:18.758Z,98803.96
2022-11-04T20:18:51.528Z,98800.75
2022-11-04T20:21:21.736Z,98801.82
2022-11-04T20:23:54.649Z,98800.19
2022-11-04T20:26:24.423Z,98807.80
2022-11-04T20:28:58.449Z,98816.88
2022-11-04T20:31:31.887Z,98813.42
2022-11-04T20:34:02.892Z,98805.92
2022-11-04T20:36:32.332Z,98805.66
2022-11-04T20:39:05.586Z,98806.33
2022-11-04T20:41:34.221Z,98815.73
2022-11-04T20:44:03.038Z,98823.21
2022-11-04T20:46:34.974Z,98831.23
2022-11-04T20:49:03.603Z,98833.41
2022-11-04T20:51:34.772Z,98833.15
2022-11-04T20:54:06.917Z,98836.20
2022-11-04T20:56:38.002Z,98844.91
2022-11-04T20:59:07.309Z,98846.58
2022-11-04T21:01:39.217Z,98847.45
2022-11-04T21:04:11.645Z,98849.98
2022-11-04T21:06:40.051Z,98850.68
2022-11-04T21:09:11.347Z,98855.67
2022-11-04T21:11:39.904Z,98848.29
2022-11-04T21:14:12.281Z,98843.75
2022-11-04T21:16:40.708Z,98843.37
2022-11-04T21:19:10.524Z,98849.00
2022-11-04T21:21:41.881Z,98853.06
2022-11-04T21:24:12.208Z,98851.78
2022-11-04T21:26:40.463Z,98850.94
2022-11-04T21:29:12.635Z,98851.16
2022-11-04T21:31:42.789Z,98848.13
2022-11-04T21:34:11.092Z,98851.87
2022-11-04T21:36:40.161Z,98855.73
2022-11-04T21:39:11.195Z,98852.58
2022-11-04T21:41:39.788Z,98847.70
2022-11-04T21:44:12.634Z,98852.25
2022-11-04T21:46:40.705Z,98850.51
2022-11-04T21:49:11.354Z,98853.29
2022-11-04T21:51:40.560Z,98857.02
2022-11-04T21:54:09.820Z,98858.73
2022-11-04T21:56:37.973Z,98857.85
2022-11-04T21:59:06.826Z,98867.74
2022-11-04T22:01:35.457Z,98871.48
2022-11-04T22:04:04.606Z,98871.08
2022-11-04T22:06:35.553Z,98871.70
2022-11-04T22:09:09.888Z,98876.52
2022-11-04T22:11:39.742Z,98875.59
2022-11-04T22:14:08.788Z,98880.06
2022-11-04T22:16:38.973Z,98881.54
2022-11-04T22:19:10.537Z,98883.21
2022-11-04T22:21:40.301Z,98881.71
2022-11-04T22:24:19.039Z,98883.06
2022-11-04T22:26:48.037Z,98881.98
2022-11-04T22:29:17.918Z,98884.64
2022-11-04T22:31:46.223Z,98885.79
2022-11-04T22:34:14.409Z,98887.68
2022-11-04T22:36:44.704Z,98882.75
2022-11-04T22:39:16.710Z,98883.30
2022-11-04T22:41:46.678Z,98879.63
2022-11-04T22:44:15.290Z,98882.70
2022-11-04T22:46:44.025Z,98883.19
2022-11-04T22:49:14.583Z,98882.96
2022-11-04T22:51:42.773Z,98884.01
2022-11-04T22:54:11.371Z,98882.37
2022-11-04T22:56:39.504Z,98883.11
2022-11-04T22:59:08.118Z,98878.86
2022-11-04T23:01:36.453Z,98892.89
2022-11-04T23:04:05.501Z,98894.35
2022-11-04T23:06:33.631Z,98895.41
2022-11-04T23:09:01.827Z,98901.35
2022-11-04T23:11:49.592Z,98905.92
2022-11-04T23:14:39.472Z,98911.31
2022-11-04T23:17:43.548Z,98910.44
2022-11-04T23:20:14.775Z,98910.83
2022-11-04T23:23:01.515Z,98915.08
2022-11-04T23:25:29.608Z,98912.51
2022-11-04T23:28:16.210Z,98909.92
2022-11-04T23:30:50.477Z,98914.79
2022-11-04T23:33:18.827Z,98914.94
2022-11-04T23:36:07.507Z,98914.13
2022-11-04T23:38:35.768Z,98918.23
2022-11-04T23:41:25.719Z,98921.38
2022-11-04T23:43:54.248Z,98919.13
2022-11-04T23:46:43.629Z,98920.21
2022-11-04T23:49:13.503Z,98924.38
2022-11-04T23:52:00.358Z,98923.70
2022-11-04T23:54:47.190Z,98927.48
2022-11-04T23:57:36.154Z,98933.73
